sensor_id;sensor_type;location;lat;lon;timestamp;pressure;altitude;pressure_sealevel;temperature
24740;BMP280;45234;48.148;17.128;2023-12-20T00:02:11;99950.97;;;0.39
24740;BMP280;45234;48.148;17.128;2023-12-20T00:04:38;99942.25;;;0.41
24740;BMP280;45234;48.148;17.128;2023-12-20T00:07:05;99945.19;;;0.37
24740;BMP280;45234;48.148;17.128;2023-12-20T00:09:32;99939.28;;;0.36
24740;BMP280;45234;48.148;17.128;2023-12-20T00:12:00;99931.63;;;0.36
24740;BMP280;45234;48.148;17.128;2023-12-20T00:14:27;99937.28;;;0.40
24740;BMP280;45234;48.148;17.128;2023-12-20T00:16:54;99942.09;;;0.54
24740;BMP280;45234;48.148;17.128;2023-12-20T00:19:21;99940.41;;;0.43
24740;BMP280;45234;48.148;17.128;2023-12-20T00:21:48;99928.34;;;0.45
24740;BMP280;45234;48.148;17.128;2023-12-20T00:24:15;99919.88;;;0.45
24740;BMP280;45234;48.148;17.128;2023-12-20T00:26:42;99922.44;;;0.45
24740;BMP280;45234;48.148;17.128;2023-12-20T00:29:09;99914.28;;;0.51
24740;BMP280;45234;48.148;17.128;2023-12-20T00:31:35;99910.50;;;0.66
24740;BMP280;45234;48.148;17.128;2023-12-20T00:34:02;99927.97;;;0.71
24740;BMP280;45234;48.148;17.128;2023-12-20T00:36:29;99917.03;;;0.59
24740;BMP280;45234;48.148;17.128;2023-12-20T00:38:56;99933.25;;;0.58
24740;BMP280;45234;48.148;17.128;2023-12-20T00:41:24;99925.50;;;0.59
24740;BMP280;45234;48.148;17.128;2023-12-20T00:43:50;99925.59;;;0.37
24740;BMP280;45234;48.148;17.128;2023-12-20T00:46:17;99909.25;;;0.40
24740;BMP280;45234;48.148;17.128;2023-12-20T00:48:44;99913.13;;;0.55
24740;BMP280;45234;48.148;17.128;2023-12-20T00:51:12;99901.06;;;0.57
24740;BMP280;45234;48.148;17.128;2023-12-20T00:53:39;99909.00;;;0.43
24740;BMP280;45234;48.148;17.128;2023-12-20T00:56:06;99904.34;;;0.48
24740;BMP280;45234;48.148;17.128;2023-12-20T00:58:33;99903.72;;;0.55
24740;BMP280;45234;48.148;17.128;2023-12-20T01:00:59;99919.59;;;0.59
24740;BMP280;45234;48.148;17.128;2023-12-20T01:03:26;99911.78;;;0.40
24740;BMP280;45234;48.148;17.128;2023-12-20T01:05:53;99904.41;;;0.37
24740;BMP280;45234;48.148;17.128;2023-12-20T01:08:20;99905.28;;;0.47
24740;BMP280;45234;48.148;17.128;2023-12-20T01:10:47;99902.94;;;0.55
24740;BMP280;45234;48.148;17.128;2023-12-20T01:13:14;99905.09;;;0.59
24740;BMP280;45234;48.148;17.128;2023-12-20T01:15:41;99895.06;;;0.68
24740;BMP280;45234;48.148;17.128;2023-12-20T01:18:08;99896.81;;;0.67
24740;BMP280;45234;48.148;17.128;2023-12-20T01:20:35;99889.34;;;0.75
24740;BMP280;45234;48.148;17.128;2023-12-20T01:23:02;99895.38;;;0.74
24740;BMP280;45234;48.148;17.128;2023-12-20T01:25:29;99886.88;;;0.64
24740;BMP280;45234;48.148;17.128;2023-12-20T01:27:56;99892.66;;;0.66
24740;BMP280;45234;48.148;17.128;2023-12-20T01:30:23;99882.31;;;0.68
24740;BMP280;45234;48.148;17.128;2023-12-20T01:32:51;99881.94;;;0.72
24740;BMP280;45234;48.148;17.128;2023-12-20T01:35:18;99880.81;;;0.86
24740;BMP280;45234;48.148;17.128;2023-12-20T01:37:45;99882.44;;;0.87
24740;BMP280;45234;48.148;17.128;2023-12-20T01:40:12;99891.31;;;0.93
24740;BMP280;45234;48.148;17.128;2023-12-20T01:42:39;99893.72;;;0.94
24740;BMP280;45234;48.148;17.128;2023-12-20T01:45:06;99886.97;;;0.83
24740;BMP280;45234;48.148;17.128;2023-12-20T01:47:33;99885.16;;;0.74
24740;BMP280;45234;48.148;17.128;2023-12-20T01:50:01;99887.44;;;0.68
24740;BMP280;45234;48.148;17.128;2023-12-20T01:52:30;99886.63;;;0.67
24740;BMP280;45234;48.148;17.128;2023-12-20T01:54:58;99877.97;;;0.79
24740;BMP280;45234;48.148;17.128;2023-12-20T01:57:29;99873.53;;;0.81
24740;BMP280;45234;48.148;17.128;2023-12-20T01:59:57;99847.53;;;0.87
24740;BMP280;45234;48.148;17.128;2023-12-20T02:02:25;99860.41;;;0.86
24740;BMP280;45234;48.148;17.128;2023-12-20T02:04:53;99864.72;;;0.85
24740;BMP280;45234;48.148;17.128;2023-12-20T02:07:20;99868.97;;;0.85
24740;BMP280;45234;48.148;17.128;2023-12-20T02:09:48;99836.78;;;0.94
24740;BMP280;45234;48.148;17.128;2023-12-20T02:12:14;99850.78;;;0.99
24740;BMP280;45234;48.148;17.128;2023-12-20T02:14:42;99855.38;;;1.05
24740;BMP280;45234;48.148;17.128;2023-12-20T02:17:08;99828.22;;;1.04
24740;BMP280;45234;48.148;17.128;2023-12-20T02:19:35;99838.56;;;1.03
24740;BMP280;45234;48.148;17.128;2023-12-20T02:22:12;99819.50;;;0.97
24740;BMP280;45234;48.148;17.128;2023-12-20T02:24:39;99825.66;;;0.95
24740;BMP280;45234;48.148;17.128;2023-12-20T02:27:08;99808.28;;;0.79
24740;BMP280;45234;48.148;17.128;2023-12-20T02:29:35;99796.78;;;0.64
24740;BMP280;45234;48.148;17.128;2023-12-20T02:32:03;99793.00;;;0.58
24740;BMP280;45234;48.148;17.128;2023-12-20T02:34:30;99795.63;;;0.68
24740;BMP280;45234;48.148;17.128;2023-12-20T02:36:57;99805.56;;;0.71
24740;BMP280;45234;48.148;17.128;2023-12-20T02:39:23;99799.28;;;0.75
24740;BMP280;45234;48.148;17.128;2023-12-20T02:41:50;99782.91;;;0.77
24740;BMP280;45234;48.148;17.128;2023-12-20T02:44:17;99791.13;;;0.91
24740;BMP280;45234;48.148;17.128;2023-12-20T02:46:44;99796.78;;;0.94
24740;BMP280;45234;48.148;17.128;2023-12-20T02:49:11;99790.09;;;1.03
24740;BMP280;45234;48.148;17.128;2023-12-20T02:51:38;99786.38;;;1.07
24740;BMP280;45234;48.148;17.128;2023-12-20T02:54:05;99783.66;;;0.99
24740;BMP280;45234;48.148;17.128;2023-12-20T02:56:33;99782.16;;;0.96
24740;BMP280;45234;48.148;17.128;2023-12-20T02:59:00;99777.25;;;0.83
24740;BMP280;45234;48.148;17.128;2023-12-20T03:01:28;99767.44;;;0.69
24740;BMP280;45234;48.148;17.128;2023-12-20T03:03:56;99771.59;;;0.70
24740;BMP280;45234;48.148;17.128;2023-12-20T03:06:23;99762.81;;;0.63
24740;BMP280;45234;48.148;17.128;2023-12-20T03:08:50;99762.28;;;0.59
24740;BMP280;45234;48.148;17.128;2023-12-20T03:11:16;99752.34;;;0.56
24740;BMP280;45234;48.148;17.128;2023-12-20T03:13:43;99741.94;;;0.69
24740;BMP280;45234;48.148;17.128;2023-12-20T03:16:13;99739.28;;;0.80
24740;BMP280;45234;48.148;17.128;2023-12-20T03:18:40;99749.25;;;0.93
24740;BMP280;45234;48.148;17.128;2023-12-20T03:21:07;99745.09;;;1.02
24740;BMP280;45234;48.148;17.128;2023-12-20T03:23:34;99737.97;;;1.05
24740;BMP280;45234;48.148;17.128;2023-12-20T03:26:01;99736.22;;;1.06
24740;BMP280;45234;48.148;17.128;2023-12-20T03:28:28;99737.75;;;1.08
24740;BMP280;45234;48.148;17.128;2023-12-20T03:30:55;99733.69;;;1.06
24740;BMP280;45234;48.148;17.128;2023-12-20T03:33:22;99737.97;;;0.96
24740;BMP280;45234;48.148;17.128;2023-12-20T03:35:49;99708.16;;;0.86
24740;BMP280;45234;48.148;17.128;2023-12-20T03:38:16;99702.47;;;0.83
24740;BMP280;45234;48.148;17.128;2023-12-20T03:40:43;99725.88;;;0.88
24740;BMP280;45234;48.148;17.128;2023-12-20T03:43:10;99741.72;;;0.92
24740;BMP280;45234;48.148;17.128;2023-12-20T03:45:36;99721.84;;;0.95
24740;BMP280;45234;48.148;17.128;2023-12-20T03:48:04;99730.19;;;0.97
24740;BMP280;45234;48.148;17.128;2023-12-20T03:50:31;99723.47;;;0.96
24740;BMP280;45234;48.148;17.128;2023-12-20T03:52:58;99725.84;;;0.78
24740;BMP280;45234;48.148;17.128;2023-12-20T03:55:24;99713.47;;;0.74
24740;BMP280;45234;48.148;17.128;2023-12-20T03:57:51;99714.28;;;0.74
24740;BMP280;45234;48.148;17.128;2023-12-20T04:00:18;99716.72;;;0.76
24740;BMP280;45234;48.148;17.128;2023-12-20T04:02:45;99724.63;;;0.82
24740;BMP280;45234;48.148;17.128;2023-12-20T04:05:12;99720.91;;;0.86
24740;BMP280;45234;48.148;17.128;2023-12-20T04:07:39;99714.59;;;0.91
24740;BMP280;45234;48.148;17.128;2023-12-20T04:10:06;99713.28;;;0.96
24740;BMP280;45234;48.148;17.128;2023-12-20T04:12:33;99722.53;;;0.97
24740;BMP280;45234;48.148;17.128;2023-12-20T04:15:00;99716.88;;;0.94
24740;BMP280;45234;48.148;17.128;2023-12-20T04:17:28;99728.56;;;0.86
24740;BMP280;45234;48.148;17.128;2023-12-20T04:19:55;99721.28;;;0.82
24740;BMP280;45234;48.148;17.128;2023-12-20T04:22:22;99720.47;;;0.81
24740;BMP280;45234;48.148;17.128;2023-12-20T04:24:49;99729.06;;;0.80
24740;BMP280;45234;48.148;17.128;2023-12-20T04:27:16;99722.09;;;0.82
24740;BMP280;45234;48.148;17.128;2023-12-20T04:29:43;99720.38;;;0.93
24740;BMP280;45234;48.148;17.128;2023-12-20T04:32:10;99724.25;;;0.77
24740;BMP280;45234;48.148;17.128;2023-12-20T04:34:37;99724.56;;;0.63
24740;BMP280;45234;48.148;17.128;2023-12-20T04:37:04;99723.22;;;0.59
24740;BMP280;45234;48.148;17.128;2023-12-20T04:39:31;99718.72;;;0.42
24740;BMP280;45234;48.148;17.128;2023-12-20T04:41:58;99717.41;;;0.47
24740;BMP280;45234;48.148;17.128;2023-12-20T04:44:25;99716.94;;;0.63
24740;BMP280;45234;48.148;17.128;2023-12-20T04:46:53;99719.13;;;0.77
24740;BMP280;45234;48.148;17.128;2023-12-20T04:49:19;99716.19;;;0.82
24740;BMP280;45234;48.148;17.128;2023-12-20T04:51:46;99710.81;;;0.85
24740;BMP280;45234;48.148;17.128;2023-12-20T04:54:13;99715.66;;;0.88
24740;BMP280;45234;48.148;17.128;2023-12-20T04:56:40;99721.72;;;0.87
24740;BMP280;45234;48.148;17.128;2023-12-20T04:59:07;99722.66;;;0.86
24740;BMP280;45234;48.148;17.128;2023-12-20T05:01:34;99710.56;;;0.88
24740;BMP280;45234;48.148;17.128;2023-12-20T05:04:01;99710.81;;;0.85
24740;BMP280;45234;48.148;17.128;2023-12-20T05:06:28;99721.69;;;0.77
24740;BMP280;45234;48.148;17.128;2023-12-20T05:08:54;99717.53;;;0.76
24740;BMP280;45234;48.148;17.128;2023-12-20T05:11:22;99718.59;;;0.83
24740;BMP280;45234;48.148;17.128;2023-12-20T05:13:49;99718.31;;;0.67
24740;BMP280;45234;48.148;17.128;2023-12-20T05:16:16;99733.22;;;0.41
24740;BMP280;45234;48.148;17.128;2023-12-20T05:18:48;99721.88;;;0.15
24740;BMP280;45234;48.148;17.128;2023-12-20T05:21:15;99720.63;;;0.09
24740;BMP280;45234;48.148;17.128;2023-12-20T05:23:41;99716.25;;;0.21
24740;BMP280;45234;48.148;17.128;2023-12-20T05:26:08;99722.59;;;0.36
24740;BMP280;45234;48.148;17.128;2023-12-20T05:28:35;99725.34;;;0.44
24740;BMP280;45234;48.148;17.128;2023-12-20T05:31:02;99723.06;;;0.51
24740;BMP280;45234;48.148;17.128;2023-12-20T05:33:29;99720.69;;;0.59
24740;BMP280;45234;48.148;17.128;2023-12-20T05:35:56;99716.94;;;0.63
24740;BMP280;45234;48.148;17.128;2023-12-20T05:38:23;99720.69;;;0.59
24740;BMP280;45234;48.148;17.128;2023-12-20T05:40:50;99716.38;;;0.59
24740;BMP280;45234;48.148;17.128;2023-12-20T05:43:17;99719.47;;;0.63
24740;BMP280;45234;48.148;17.128;2023-12-20T05:45:44;99714.00;;;0.68
24740;BMP280;45234;48.148;17.128;2023-12-20T05:48:11;99714.81;;;0.68
24740;BMP280;45234;48.148;17.128;2023-12-20T05:50:38;99716.94;;;0.63
24740;BMP280;45234;48.148;17.128;2023-12-20T05:53:05;99722.72;;;0.65
24740;BMP280;45234;48.148;17.128;2023-12-20T05:55:32;99721.78;;;0.66
24740;BMP280;45234;48.148;17.128;2023-12-20T05:57:59;99725.94;;;0.67
24740;BMP280;45234;48.148;17.128;2023-12-20T06:00:27;99730.13;;;0.68
24740;BMP280;45234;48.148;17.128;2023-12-20T06:02:54;99718.47;;;0.75
24740;BMP280;45234;48.148;17.128;2023-12-20T06:05:21;99724.50;;;0.84
24740;BMP280;45234;48.148;17.128;2023-12-20T06:07:48;99726.81;;;0.87
24740;BMP280;45234;48.148;17.128;2023-12-20T06:10:17;99712.03;;;0.91
24740;BMP280;45234;48.148;17.128;2023-12-20T06:12:44;99713.00;;;0.90
24740;BMP280;45234;48.148;17.128;2023-12-20T06:15:14;99729.75;;;0.92
24740;BMP280;45234;48.148;17.128;2023-12-20T06:17:41;99714.59;;;0.91
24740;BMP280;45234;48.148;17.128;2023-12-20T06:20:08;99713.38;;;0.95
24740;BMP280;45234;48.148;17.128;2023-12-20T06:22:36;99720.78;;;0.98
24740;BMP280;45234;48.148;17.128;2023-12-20T06:25:03;99709.34;;;0.92
24740;BMP280;45234;48.148;17.128;2023-12-20T06:27:30;99712.19;;;0.89
24740;BMP280;45234;48.148;17.128;2023-12-20T06:29:59;99700.50;;;0.86
24740;BMP280;45234;48.148;17.128;2023-12-20T06:32:26;99703.25;;;0.74
24740;BMP280;45234;48.148;17.128;2023-12-20T06:34:52;99696.00;;;0.59
24740;BMP280;45234;48.148;17.128;2023-12-20T06:37:19;99712.63;;;0.54
24740;BMP280;45234;48.148;17.128;2023-12-20T06:39:46;99709.38;;;0.52
24740;BMP280;45234;48.148;17.128;2023-12-20T06:42:13;99710.06;;;0.54
24740;BMP280;45234;48.148;17.128;2023-12-20T06:44:40;99705.97;;;0.42
24740;BMP280;45234;48.148;17.128;2023-12-20T06:47:07;99697.81;;;0.48
24740;BMP280;45234;48.148;17.128;2023-12-20T06:49:35;99705.06;;;0.52
24740;BMP280;45234;48.148;17.128;2023-12-20T06:52:02;99714.75;;;0.49
24740;BMP280;45234;48.148;17.128;2023-12-20T06:54:30;99710.91;;;0.64
24740;BMP280;45234;48.148;17.128;2023-12-20T06:56:56;99720.34;;;0.83
24740;BMP280;45234;48.148;17.128;2023-12-20T06:59:23;99715.00;;;0.96
24740;BMP280;45234;48.148;17.128;2023-12-20T07:01:50;99710.47;;;1.09
24740;BMP280;45234;48.148;17.128;2023-12-20T07:04:17;99715.16;;;1.13
24740;BMP280;45234;48.148;17.128;2023-12-20T07:06:49;99716.41;;;1.19
24740;BMP280;45234;48.148;17.128;2023-12-20T07:09:18;99719.75;;;1.29
24740;BMP280;45234;48.148;17.128;2023-12-20T07:11:45;99727.25;;;1.40
24740;BMP280;45234;48.148;17.128;2023-12-20T07:14:18;99718.09;;;1.47
24740;BMP280;45234;48.148;17.128;2023-12-20T07:16:45;99717.06;;;1.60
24740;BMP280;45234;48.148;17.128;2023-12-20T07:19:12;99740.81;;;1.70
24740;BMP280;45234;48.148;17.128;2023-12-20T07:21:39;99732.09;;;1.72
24740;BMP280;45234;48.148;17.128;2023-12-20T07:24:06;99723.06;;;1.68
24740;BMP280;45234;48.148;17.128;2023-12-20T07:26:32;99717.56;;;1.73
24740;BMP280;45234;48.148;17.128;2023-12-20T07:29:00;99725.38;;;1.81
24740;BMP280;45234;48.148;17.128;2023-12-20T07:31:28;99722.06;;;1.89
24740;BMP280;45234;48.148;17.128;2023-12-20T07:33:54;99701.63;;;1.89
24740;BMP280;45234;48.148;17.128;2023-12-20T07:36:21;99706.41;;;1.84
24740;BMP280;45234;48.148;17.128;2023-12-20T07:38:48;99711.22;;;1.87
24740;BMP280;45234;48.148;17.128;2023-12-20T07:41:15;99704.50;;;1.86
24740;BMP280;45234;48.148;17.128;2023-12-20T07:43:49;99715.41;;;1.78
24740;BMP280;45234;48.148;17.128;2023-12-20T07:46:16;99712.16;;;1.86
24740;BMP280;45234;48.148;17.128;2023-12-20T07:48:45;99715.22;;;1.89
24740;BMP280;45234;48.148;17.128;2023-12-20T07:51:13;99712.91;;;2.05
24740;BMP280;45234;48.148;17.128;2023-12-20T07:53:40;99712.44;;;2.20
24740;BMP280;45234;48.148;17.128;2023-12-20T07:56:17;99713.41;;;2.19
24740;BMP280;45234;48.148;17.128;2023-12-20T07:58:45;99719.91;;;2.31
24740;BMP280;45234;48.148;17.128;2023-12-20T08:01:19;99720.97;;;2.38
24740;BMP280;45234;48.148;17.128;2023-12-20T08:03:48;99712.63;;;2.46
24740;BMP280;45234;48.148;17.128;2023-12-20T08:06:15;99716.22;;;2.43
24740;BMP280;45234;48.148;17.128;2023-12-20T08:08:43;99716.22;;;2.43
24740;BMP280;45234;48.148;17.128;2023-12-20T08:11:11;99715.69;;;2.49
24740;BMP280;45234;48.148;17.128;2023-12-20T08:13:38;99715.16;;;2.46
24740;BMP280;45234;48.148;17.128;2023-12-20T08:16:05;99724.34;;;2.39
24740;BMP280;45234;48.148;17.128;2023-12-20T08:18:32;99721.34;;;2.25
24740;BMP280;45234;48.148;17.128;2023-12-20T08:20:59;99735.47;;;2.20
24740;BMP280;45234;48.148;17.128;2023-12-20T08:23:26;99724.94;;;2.23
24740;BMP280;45234;48.148;17.128;2023-12-20T08:25:55;99722.97;;;2.17
24740;BMP280;45234;48.148;17.128;2023-12-20T08:28:22;99710.47;;;2.14
24740;BMP280;45234;48.148;17.128;2023-12-20T08:30:49;99708.88;;;2.13
24740;BMP280;45234;48.148;17.128;2023-12-20T08:33:20;99712.06;;;2.15
24740;BMP280;45234;48.148;17.128;2023-12-20T08:35:47;99717.84;;;2.17
24740;BMP280;45234;48.148;17.128;2023-12-20T08:38:14;99712.44;;;2.20
24740;BMP280;45234;48.148;17.128;2023-12-20T08:40:41;99706.38;;;2.21
24740;BMP280;45234;48.148;17.128;2023-12-20T08:43:09;99709.59;;;2.23
24740;BMP280;45234;48.148;17.128;2023-12-20T08:45:37;99703.56;;;2.24
24740;BMP280;45234;48.148;17.128;2023-12-20T08:48:05;99688.25;;;2.24
24740;BMP280;45234;48.148;17.128;2023-12-20T08:50:35;99698.34;;;2.16
24740;BMP280;45234;48.148;17.128;2023-12-20T08:53:03;99702.03;;;2.31
24740;BMP280;45234;48.148;17.128;2023-12-20T08:55:30;99703.84;;;2.48
24740;BMP280;45234;48.148;17.128;2023-12-20T08:57:58;99715.03;;;2.65
24740;BMP280;45234;48.148;17.128;2023-12-20T09:00:25;99710.91;;;2.82
24740;BMP280;45234;48.148;17.128;2023-12-20T09:02:54;99702.72;;;2.96
24740;BMP280;45234;48.148;17.128;2023-12-20T09:05:21;99689.94;;;3.14
24740;BMP280;45234;48.148;17.128;2023-12-20T09:07:49;99686.81;;;3.28
24740;BMP280;45234;48.148;17.128;2023-12-20T09:10:16;99691.66;;;3.31
24740;BMP280;45234;48.148;17.128;2023-12-20T09:12:51;99701.16;;;3.39
24740;BMP280;45234;48.148;17.128;2023-12-20T09:15:20;99717.16;;;3.58
24740;BMP280;45234;48.148;17.128;2023-12-20T09:17:47;99695.97;;;3.82
24740;BMP280;45234;48.148;17.128;2023-12-20T09:20:14;99683.84;;;4.27
24740;BMP280;45234;48.148;17.128;2023-12-20T09:22:42;99674.63;;;4.66
24740;BMP280;45234;48.148;17.128;2023-12-20T09:25:10;99677.22;;;4.99
24740;BMP280;45234;48.148;17.128;2023-12-20T09:27:38;99677.34;;;5.30
24740;BMP280;45234;48.148;17.128;2023-12-20T09:30:05;99691.16;;;5.53
24740;BMP280;45234;48.148;17.128;2023-12-20T09:32:32;99675.66;;;5.78
24740;BMP280;45234;48.148;17.128;2023-12-20T09:34:59;99681.69;;;6.01
24740;BMP280;45234;48.148;17.128;2023-12-20T09:37:27;99666.19;;;6.17
24740;BMP280;45234;48.148;17.128;2023-12-20T09:39:54;99671.25;;;6.25
24740;BMP280;45234;48.148;17.128;2023-12-20T09:45:15;99662.47;;;6.43
24740;BMP280;45234;48.148;17.128;2023-12-20T09:47:46;99667.22;;;6.54
24740;BMP280;45234;48.148;17.128;2023-12-20T09:50:14;99665.84;;;6.66
24740;BMP280;45234;48.148;17.128;2023-12-20T09:52:42;99659.00;;;6.73
24740;BMP280;45234;48.148;17.128;2023-12-20T09:55:10;99653.03;;;6.81
24740;BMP280;45234;48.148;17.128;2023-12-20T09:57:37;99661.00;;;6.86
24740;BMP280;45234;48.148;17.128;2023-12-20T10:00:04;99663.22;;;6.89
24740;BMP280;45234;48.148;17.128;2023-12-20T10:02:41;99669.84;;;6.91
24740;BMP280;45234;48.148;17.128;2023-12-20T10:05:15;99667.09;;;6.93
24740;BMP280;45234;48.148;17.128;2023-12-20T10:07:42;99667.47;;;7.05
24740;BMP280;45234;48.148;17.128;2023-12-20T10:10:12;99661.31;;;7.06
24740;BMP280;45234;48.148;17.128;2023-12-20T10:12:39;99644.34;;;7.11
24740;BMP280;45234;48.148;17.128;2023-12-20T10:15:06;99651.91;;;7.13
24740;BMP280;45234;48.148;17.128;2023-12-20T10:17:33;99654.59;;;7.19
24740;BMP280;45234;48.148;17.128;2023-12-20T10:20:01;99650.81;;;7.22
24740;BMP280;45234;48.148;17.128;2023-12-20T10:22:29;99648.19;;;7.30
24740;BMP280;45234;48.148;17.128;2023-12-20T10:24:57;99649.53;;;7.41
24740;BMP280;45234;48.148;17.128;2023-12-20T10:27:23;99652.13;;;7.55
24740;BMP280;45234;48.148;17.128;2023-12-20T10:29:50;99646.31;;;7.68
24740;BMP280;45234;48.148;17.128;2023-12-20T10:32:27;99645.13;;;7.71
24740;BMP280;45234;48.148;17.128;2023-12-20T10:34:55;99651.25;;;7.84
24740;BMP280;45234;48.148;17.128;2023-12-20T10:37:22;99651.31;;;7.91
24740;BMP280;45234;48.148;17.128;2023-12-20T10:39:54;99651.06;;;7.86
24740;BMP280;45234;48.148;17.128;2023-12-20T10:42:27;99648.75;;;7.91
24740;BMP280;45234;48.148;17.128;2023-12-20T10:44:55;99649.34;;;7.93
24740;BMP280;45234;48.148;17.128;2023-12-20T10:47:24;99640.41;;;7.89
24740;BMP280;45234;48.148;17.128;2023-12-20T10:49:52;99631.47;;;7.91
24740;BMP280;45234;48.148;17.128;2023-12-20T10:52:23;99624.47;;;7.85
24740;BMP280;45234;48.148;17.128;2023-12-20T10:54:52;99605.59;;;7.85
24740;BMP280;45234;48.148;17.128;2023-12-20T10:57:19;99613.72;;;7.82
24740;BMP280;45234;48.148;17.128;2023-12-20T10:59:48;99608.94;;;7.79
24740;BMP280;45234;48.148;17.128;2023-12-20T11:02:20;99607.53;;;7.76
24740;BMP280;45234;48.148;17.128;2023-12-20T11:10:10;99598.34;;;7.74
24740;BMP280;45234;48.148;17.128;2023-12-20T11:12:58;99601.28;;;7.71
24740;BMP280;45234;48.148;17.128;2023-12-20T11:15:27;99604.38;;;7.81
24740;BMP280;45234;48.148;17.128;2023-12-20T11:17:55;99607.56;;;7.83
24740;BMP280;45234;48.148;17.128;2023-12-20T11:20:37;99613.91;;;7.80
24740;BMP280;45234;48.148;17.128;2023-12-20T11:23:05;99611.47;;;7.93
24740;BMP280;45234;48.148;17.128;2023-12-20T11:25:55;99604.06;;;7.90
24740;BMP280;45234;48.148;17.128;2023-12-20T11:28:23;99608.56;;;8.03
24740;BMP280;45234;48.148;17.128;2023-12-20T11:30:53;99604.31;;;8.10
24740;BMP280;45234;48.148;17.128;2023-12-20T11:33:26;99600.34;;;8.14
24740;BMP280;45234;48.148;17.128;2023-12-20T11:35:57;99598.03;;;8.19
24740;BMP280;45234;48.148;17.128;2023-12-20T11:38:24;99604.81;;;8.20
24740;BMP280;45234;48.148;17.128;2023-12-20T11:40:54;99604.19;;;8.18
24740;BMP280;45234;48.148;17.128;2023-12-20T11:43:39;99600.13;;;8.09
24740;BMP280;45234;48.148;17.128;2023-12-20T11:46:07;99591.63;;;8.15
24740;BMP280;45234;48.148;17.128;2023-12-20T11:48:39;99593.19;;;8.10
24740;BMP280;45234;48.148;17.128;2023-12-20T11:51:14;99599.94;;;8.11
24740;BMP280;45234;48.148;17.128;2023-12-20T11:53:41;99602.31;;;8.12
24740;BMP280;45234;48.148;17.128;2023-12-20T11:56:11;99592.38;;;8.09
24740;BMP280;45234;48.148;17.128;2023-12-20T11:58:39;99590.41;;;8.11
24740;BMP280;45234;48.148;17.128;2023-12-20T12:01:06;99597.16;;;8.12
24740;BMP280;45234;48.148;17.128;2023-12-20T12:03:35;99593.00;;;8.11
24740;BMP280;45234;48.148;17.128;2023-12-20T12:06:09;99593.84;;;8.18
24740;BMP280;45234;48.148;17.128;2023-12-20T12:08:36;99590.81;;;8.15
24740;BMP280;45234;48.148;17.128;2023-12-20T12:11:04;99594.19;;;8.15
24740;BMP280;45234;48.148;17.128;2023-12-20T12:13:31;99582.09;;;8.16
24740;BMP280;45234;48.148;17.128;2023-12-20T12:15:59;99571.34;;;8.12
24740;BMP280;45234;48.148;17.128;2023-12-20T12:18:26;99577.72;;;8.16
24740;BMP280;45234;48.148;17.128;2023-12-20T12:21:00;99575.34;;;8.15
24740;BMP280;45234;48.148;17.128;2023-12-20T12:23:28;99564.22;;;8.14
24740;BMP280;45234;48.148;17.128;2023-12-20T12:25:55;99582.69;;;8.11
24740;BMP280;45234;48.148;17.128;2023-12-20T12:28:25;99570.84;;;8.02
24740;BMP280;45234;48.148;17.128;2023-12-20T12:30:59;99570.53;;;7.90
24740;BMP280;45234;48.148;17.128;2023-12-20T12:33:26;99572.63;;;7.80
24740;BMP280;45234;48.148;17.128;2023-12-20T12:35:54;99570.25;;;7.79
24740;BMP280;45234;48.148;17.128;2023-12-20T12:38:22;99577.53;;;7.75
24740;BMP280;45234;48.148;17.128;2023-12-20T12:40:49;99577.47;;;7.69
24740;BMP280;45234;48.148;17.128;2023-12-20T12:43:17;99575.59;;;7.62
24740;BMP280;45234;48.148;17.128;2023-12-20T12:45:44;99587.06;;;7.60
24740;BMP280;45234;48.148;17.128;2023-12-20T12:48:11;99582.91;;;7.59
24740;BMP280;45234;48.148;17.128;2023-12-20T12:50:38;99589.84;;;7.58
24740;BMP280;45234;48.148;17.128;2023-12-20T12:53:05;99593.03;;;7.60
24740;BMP280;45234;48.148;17.128;2023-12-20T12:55:32;99589.03;;;7.58
24740;BMP280;45234;48.148;17.128;2023-12-20T12:57:59;99600.97;;;7.59
24740;BMP280;45234;48.148;17.128;2023-12-20T13:00:26;99596.22;;;7.62
24740;BMP280;45234;48.148;17.128;2023-12-20T13:02:53;99597.50;;;7.67
24740;BMP280;45234;48.148;17.128;2023-12-20T13:05:20;99600.31;;;7.72
24740;BMP280;45234;48.148;17.128;2023-12-20T13:07:47;99601.09;;;7.72
24740;BMP280;45234;48.148;17.128;2023-12-20T13:10:15;99603.50;;;7.74
24740;BMP280;45234;48.148;17.128;2023-12-20T13:12:44;99609.13;;;7.77
24740;BMP280;45234;48.148;17.128;2023-12-20T13:15:12;99614.09;;;7.79
24740;BMP280;45234;48.148;17.128;2023-12-20T13:17:39;99611.22;;;7.88
24740;BMP280;45234;48.148;17.128;2023-12-20T13:20:07;99609.50;;;7.95
24740;BMP280;45234;48.148;17.128;2023-12-20T13:22:34;99617.41;;;8.09
24740;BMP280;45234;48.148;17.128;2023-12-20T13:25:02;99621.88;;;8.21
24740;BMP280;45234;48.148;17.128;2023-12-20T13:27:30;99604.31;;;8.32
24740;BMP280;45234;48.148;17.128;2023-12-20T13:29:57;99615.47;;;8.39
24740;BMP280;45234;48.148;17.128;2023-12-20T13:32:24;99609.34;;;8.40
24740;BMP280;45234;48.148;17.128;2023-12-20T13:34:51;99619.66;;;8.40
24740;BMP280;45234;48.148;17.128;2023-12-20T13:37:18;99621.00;;;8.36
24740;BMP280;45234;48.148;17.128;2023-12-20T13:39:45;99623.19;;;8.39
24740;BMP280;45234;48.148;17.128;2023-12-20T13:42:12;99625.44;;;8.42
24740;BMP280;45234;48.148;17.128;2023-12-20T13:44:39;99618.03;;;8.39
24740;BMP280;45234;48.148;17.128;2023-12-20T13:47:06;99614.13;;;8.43
24740;BMP280;45234;48.148;17.128;2023-12-20T13:49:33;99606.25;;;8.51
24740;BMP280;45234;48.148;17.128;2023-12-20T13:52:00;99609.66;;;8.58
24740;BMP280;45234;48.148;17.128;2023-12-20T13:54:27;99605.94;;;8.60
24740;BMP280;45234;48.148;17.128;2023-12-20T13:56:53;99613.09;;;8.65
24740;BMP280;45234;48.148;17.128;2023-12-20T13:59:37;99607.91;;;8.65
24740;BMP280;45234;48.148;17.128;2023-12-20T14:02:05;99619.84;;;8.66
24740;BMP280;45234;48.148;17.128;2023-12-20T14:04:32;99634.97;;;8.63
24740;BMP280;45234;48.148;17.128;2023-12-20T14:07:09;99620.78;;;8.58
24740;BMP280;45234;48.148;17.128;2023-12-20T14:09:38;99632.88;;;8.51
24740;BMP280;45234;48.148;17.128;2023-12-20T14:12:05;99630.03;;;8.46
24740;BMP280;45234;48.148;17.128;2023-12-20T14:14:32;99632.00;;;8.44
24740;BMP280;45234;48.148;17.128;2023-12-20T14:16:59;99629.63;;;8.43
24740;BMP280;45234;48.148;17.128;2023-12-20T14:19:26;99624.06;;;8.46
24740;BMP280;45234;48.148;17.128;2023-12-20T14:21:53;99634.03;;;8.49